Eganville, Canada
Current Conditions -  °F | °C
As of 4:00 PM on Friday 19 Dec 2014 (Local Time) from CYWA Reporting Station
Clear Clear  
Wind Chill: 14°   Ceiling: Unl
Heat Index: 21°   Visibility: 9mi
Dew Point: 14°   Wind: 6mph
Humidity: 74%   Direction: 280°W
Pressure: 30.2"   Gusts: NA
Location:  45.53°N, 77.1°W
Report Text: CYWA 192100Z AUTO 28005KT 9SM CLR M06/M10 A3020 RMK SLP236
Loading
Personal Weather Stations






























Interactive Weather Map New forecast layout! Learn more

10-Day Weather Forecast

Advertisements
Track Severe Weather on mobile